Flight Track Log - Related Links

Times and Time Zones

All times are in EDT time to prevent confusion due to time zone crossing. See the DAL676 flight status page for this flight to view local times or setup timezone preferences in your user account.

Time Position Orientation Groundspeed Altitude Reporting Facility
EDT Latitude Longitude Course Direction KTS MPH feet Rate Location/Type
Fri 01:17:04 PM 18.3333 -64.9500 331° Northwest 130 150 900  Level San Juan Center
Fri 01:18:04 PM 18.2833 -64.9167 148° Southeast 200 230 3,200 2,650 Climbing San Juan Center
Fri 01:19:00 PM 18.6257 -65.1422 331° Northwest  Level FlightAware Approximate
Fri 01:19:04 PM 18.2500 -65.0000 247° West 300 345 6,200  Level San Juan Center
Fri 01:20:00 PM 18.7218 -65.1986 331° Northwest  Level FlightAware Approximate
Fri 01:20:04 PM 18.3167 -65.0500 325° Northwest 300 345 9,400  Level San Juan Center
Fri 01:21:00 PM 18.8179 -65.2551 331° Northwest  Level FlightAware Approximate
Fri 01:21:05 PM 18.4000 -65.0833 339° North 310 357 10,000  Level San Juan Center
Fri 01:22:00 PM 18.9140 -65.3117 331° Northwest  Level FlightAware Approximate
Fri 01:22:05 PM 18.4833 -65.1167 339° North 380 437 11,600  Level San Juan Center
Fri 01:23:05 PM 18.5833 -65.1833 328° Northwest 380 437 14,500 2,750 Climbing San Juan Center
Fri 01:24:05 PM 18.6833 -65.2333 335° Northwest 400 460 17,100 2,350 Climbing San Juan Center
Fri 01:25:05 PM 18.7833 -65.2833 335° Northwest 410 472 19,200 2,050 Climbing San Juan Center
Fri 01:26:05 PM 18.8833 -65.3500 328° Northwest 420 483 21,200 1,950 Climbing San Juan Center
Fri 01:27:05 PM 19.0000 -65.4167 332° Northwest 440 506 23,100 1,835 Climbing San Juan Center
Fri 01:28:06 PM 19.1000 -65.4667 335° Northwest 450 518 24,900 1,700 Climbing San Juan Center
Fri 01:29:05 PM 19.2000 -65.5333 328° Northwest 440 506 26,500 1,500 Climbing San Juan Center
Fri 01:30:06 PM 19.3167 -65.6000 332° Northwest 460 529 27,900 1,300 Climbing San Juan Center
Fri 01:31:05 PM 19.4333 -65.6500 338° Northwest 470 541 29,100 1,600 Climbing San Juan Center
Fri 01:32:06 PM 19.5333 -65.7167 328° Northwest 470 541 31,100 1,884 Climbing San Juan Center
Fri 01:33:06 PM 19.6500 -65.7833 332° Northwest 460 529 32,900 1,700 Climbing San Juan Center
Fri 01:34:06 PM 19.7667 -65.8500 332° Northwest 460 529 34,500 1,550 Climbing San Juan Center
Fri 01:35:06 PM 19.8833 -65.9167 332° Northwest 450 518 36,000 1,400 Climbing San Juan Center
Fri 01:36:06 PM 19.9833 -65.9833 328° Northwest 450 518 37,300 992 Climbing San Juan Center
Fri 01:37:07 PM 20.1000 -66.0500 332° Northwest 450 518 38,000 347 Climbing San Juan Center
Fri 01:38:07 PM 20.2000 -66.1000 335° Northwest 450 518 38,000  Level San Juan Center
Fri 01:39:07 PM 20.3167 -66.1667 332° Northwest 440 506 38,000  Level San Juan Center
Fri 01:40:07 PM 20.4333 -66.2333 332° Northwest 450 518 38,000  Level San Juan Center
Fri 01:41:07 PM 20.5333 -66.3000 328° Northwest 450 518 38,000  Level San Juan Center
Fri 01:42:07 PM 20.6500 -66.3667 332° Northwest 450 518 38,000  Level San Juan Center
Fri 01:43:07 PM 20.7500 -66.4167 335° Northwest 450 518 38,000  Level San Juan Center
Fri 01:44:08 PM 20.8667 -66.4833 332° Northwest 450 518 38,000 50 Level San Juan Center
Fri 01:45:07 PM 20.9667 -66.5500 328° Northwest 450 518 38,100  Climbing San Juan Center
Fri 01:46:08 PM 21.0833 -66.6167 332° Northwest 440 506 38,000 -50 Descending San Juan Center
Fri 01:47:08 PM 21.2000 -66.6833 332° Northwest 440 506 38,000 50 Level San Juan Center
Fri 01:48:08 PM 21.3000 -66.7500 328° Northwest 440 506 38,100  Climbing San Juan Center
Fri 01:49:08 PM 21.4000 -66.8000 335° Northwest 430 495 38,000 -50 Descending San Juan Center
Fri 01:50:08 PM 21.5167 -66.8667 332° Northwest 440 506 38,000  Level San Juan Center
Fri 01:51:08 PM 21.6000 -66.9167 331° Northwest 440 506 38,000  Level San Juan Center
Fri 01:52:08 PM 21.7333 -67.0000 330° Northwest 440 506 38,000  Level San Juan Center
Fri 01:53:16 PM 21.7667 -67.0167 329° Northwest 483 556 38,000  Level New York Oceanic (ODAPS)
Fri 01:57:51 PM 22.2333 -67.3167 349° North 455 524 38,000  Level New York Oceanic (ODAPS)
Fri 02:24:21 PM 25.4667 -68.0000 349° North 450 518 38,000  Level New York Oceanic (ODAPS)
Fri 02:43:21 PM 27.9333 -68.5333 349° North 451 519 38,000  Level New York Oceanic (ODAPS)
Fri 03:18:30 PM 30.9000 -69.2333 349° North 440 506 38,000  Level New York Oceanic (ODAPS)
Fri 03:29:40 PM 33.3000 -69.8167 348° North 451 519 38,000  Level New York Oceanic (ODAPS)
Fri 03:49:36 PM 35.7667 -70.4500 348° North 479 551 38,000 Level New York Oceanic (ODAPS)
Fri 03:59:20 PM 37.3914 -70.8844 326° Northwest 458 527 38,100  Climbing New York Center
Fri 04:00:00 PM 37.5867 -70.9469 347° North 479 551 38,000  Descending FlightAware Transoceanic
Fri 04:00:18 PM 37.5206 -70.9186 348° North 471 542 38,100  Climbing New York Center
Fri 04:01:00 PM 37.7167 -70.9833 326° Northwest 479 551 38,000  Descending FlightAware Transoceanic
Fri 04:01:18 PM 37.6456 -70.9611 345° North 471 542 38,100  Climbing New York Center
Fri 04:02:00 PM 37.8223 -71.0733 326° Northwest 479 551 38,000  Descending FlightAware Transoceanic
Fri 04:02:19 PM 37.7644 -71.0192 339° North 465 535 38,100 77 Climbing New York Center
Fri 04:03:18 PM 37.8706 -71.1011 329° Northwest 450 518 38,100  Level New York Center
Fri 04:04:18 PM 37.9744 -71.1728 331° Northwest 438 504 38,100  Level New York Center
Fri 04:05:18 PM 38.0786 -71.2500 330° Northwest 433 498 38,100  Level New York Center
Fri 04:06:18 PM 38.1803 -71.3247 330° Northwest 433 498 38,100  Level New York Center
Fri 04:07:20 PM 38.2800 -71.4075 327° Northwest 428 493 38,100  Level New York Center
Fri 04:08:19 PM 38.3503 -71.5142 310° West 414 476 38,100 -150 Level New York Center
Fri 04:09:20 PM 38.3556 -71.6414 273° West 356 410 37,800 -555 Descending New York Center
Fri 04:10:18 PM 38.3544 -71.7842 269° West 367 422 37,000 -1,462 Descending New York Center
Fri 04:11:19 PM 38.3553 -71.9194 270° West 378 435 34,900 -2,727 Descending New York Center
Fri 04:12:19 PM 38.3581 -72.0544 272° West 390 449 31,500 -3,223 Descending New York Center
Fri 04:13:20 PM 38.3875 -72.2006 284° West 399 459 28,400 -1,765 Descending New York Center
Fri 04:14:18 PM 38.4694 -72.3217 311° West 411 473 28,000 -202 Descending New York Center
Fri 04:15:19 PM 38.5703 -72.4142 324° Northwest 432 497 28,000  Level New York Center
Fri 04:16:19 PM 38.6769 -72.5231 321° Northwest 437 503 28,000  Level New York Center
Fri 04:17:20 PM 38.7797 -72.6189 324° Northwest 448 516 28,000  Level New York Center
Fri 04:18:18 PM 38.8803 -72.7228 321° Northwest 453 521 28,000 -600 Level New York Center
Fri 04:19:20 PM 38.9767 -72.8136 324° Northwest 458 527 26,800 -1,672 Descending New York Center
Fri 04:20:20 PM 39.0711 -72.9047 323° Northwest 441 507 24,600 -2,132 Descending New York Center
Fri 04:21:21 PM 39.1589 -72.9983 320° Northwest 420 483 22,500 -2,200 Descending New York Center
Fri 04:22:20 PM 39.2428 -73.0842 322° Northwest 410 472 20,200 -2,339 Descending New York Center
Fri 04:23:19 PM 39.3267 -73.1675 322° Northwest 392 451 17,900 -2,050 Descending New York Center
Fri 04:24:20 PM 39.4083 -73.2456 324° Northwest 382 440 16,100 -1,815 Descending New York Center
Fri 04:25:18 PM 39.4858 -73.3208 323° Northwest 364 419 14,300 -2,017 Descending New York Center
Fri 04:26:19 PM 39.5594 -73.3936 323° Northwest 344 396 12,100 -2,066 Descending New York Center
Fri 04:27:20 PM 39.6325 -73.4744 320° Northwest 344 396 10,100 -1,289 Descending New York Center
Fri 04:28:20 PM 39.7058 -73.5447 324° Northwest 339 390 9,500 -610 Descending New York Center
Fri 04:29:18 PM 39.7731 -73.6150 321° Northwest 333 383 8,900 -300 Descending New York Center
Fri 04:30:20 PM 39.8422 -73.6853 322° Northwest 323 372 8,900 110 Level New York Center
Fri 04:31:07 PM 39.9000 -73.7500 319° Northwest 319 367 9,100 111 Climbing New York TRACON
Fri 04:32:08 PM 39.9667 -73.8000 330° Northwest 293 337 9,100  Level New York TRACON
Fri 04:33:13 PM 40.0500 -73.7500 25° Northeast 289 333 9,100 -692 Level New York TRACON
Fri 04:34:18 PM 40.1208 -73.7053 26° Northeast 273 314 7,600 -1,565 Descending New York Center
Fri 04:35:08 PM 40.1833 -73.7000 North 275 316 6,100 -1,587 Descending New York TRACON
Fri 04:36:19 PM 40.2419 -73.7811 313° West 248 285 4,400 -1,364 Descending New York Center
Fri 04:37:20 PM 40.2922 -73.8486 314° West 269 310 3,100 -706 Descending New York Center
Fri 04:38:18 PM 40.3400 -73.9325 307° West 269 310 3,000 -50 Descending New York Center
Fri 04:39:20 PM 40.3717 -74.0019 301° West 255 293 3,000 55 Level New York Center
Fri 04:40:08 PM 40.4167 -74.0333 332° Northwest 232 267 3,100 56 Climbing New York TRACON
Fri 04:41:07 PM 40.4833 -74.0000 21° North 215 247 3,100  Level New York TRACON
Fri 04:42:13 PM 40.5167 -73.9667 37° Northeast 177 204 3,100  Level New York TRACON
Fri 04:43:07 PM 40.5667 -73.9333 27° Northeast 174 200 3,100 -316 Level New York TRACON
Fri 04:44:07 PM 40.6000 -73.9000 37° Northeast 170 196 2,500 -992 Descending New York TRACON
Fri 04:45:08 PM 40.6500 -73.8667 27° Northeast 167 192 1,100 -1,041 Descending New York TRACON
Fri 04:46:08 PM 40.6500 -73.8167 90° East 136 157 400 -700 Descending New York TRACON

Login

Don't have an account? Register now (free) for customized features, flight alerts, and more!